Time;durP1;ratioP1;P1;durP2;ratioP2;P2;SDS_P1;SDS_P2;PMS_P1;PMS_P2;Temp;Humidity;BMP_temperature;BMP_pressure;BME280_temperature;BME280_humidity;BME280_pressure;Samples;Min_cycle;Max_cycle;Signal;HPM_P1;HPM_P2
2021/01/11 00:01:29;;;;;;;12.75;5.32;;;5.40;86.70;;;;;;5034114;28;20029;-78
2021/01/11 00:03:55;;;;;;;15.95;5.72;;;5.40;86.70;;;;;;5033806;28;20097;-78
2021/01/11 00:06:20;;;;;;;14.82;6.65;;;5.40;86.70;;;;;;5034798;28;20393;-78
2021/01/11 00:08:46;;;;;;;15.63;5.47;;;5.40;86.60;;;;;;5035032;28;20079;-76
2021/01/11 00:11:19;;;;;;;15.98;5.50;;;5.40;86.80;;;;;;5036095;28;20022;-78
2021/01/11 00:13:45;;;;;;;13.48;4.47;;;5.40;86.80;;;;;;5038448;28;20018;-77
2021/01/11 00:16:11;;;;;;;18.23;5.28;;;5.40;86.80;;;;;;5036505;28;20108;-77
2021/01/11 00:18:38;;;;;;;14.88;5.03;;;5.40;87.30;;;;;;5053827;28;20029;-93
2021/01/11 00:21:04;;;;;;;14.82;6.53;;;5.50;86.70;;;;;;5049371;28;20091;-76
2021/01/11 00:23:30;;;;;;;11.95;5.32;;;5.40;86.70;;;;;;5035186;28;20021;-76
2021/01/11 00:25:55;;;;;;;14.25;5.40;;;5.40;86.70;;;;;;5034337;28;20032;-77
2021/01/11 00:28:21;;;;;;;12.25;4.97;;;5.40;86.90;;;;;;5016368;28;20410;-76
2021/01/11 00:30:47;;;;;;;15.90;6.03;;;5.40;87.00;;;;;;5034110;28;20049;-76
2021/01/11 00:33:12;;;;;;;16.70;6.13;;;5.30;87.00;;;;;;5016317;28;20518;-77
2021/01/11 00:35:38;;;;;;;16.88;5.55;;;5.40;87.00;;;;;;5015557;28;20030;-77
2021/01/11 00:38:03;;;;;;;13.13;4.70;;;5.40;87.00;;;;;;5033548;28;20044;-76
2021/01/11 00:40:29;;;;;;;11.50;4.97;;;5.40;86.90;;;;;;5015771;28;20017;-77
2021/01/11 00:42:54;;;;;;;14.93;5.95;;;5.40;86.80;;;;;;5014828;28;20085;-77
2021/01/11 00:45:20;;;;;;;15.85;5.22;;;5.50;86.80;;;;;;5033064;28;20063;-77
2021/01/11 00:47:46;;;;;;;18.17;5.88;;;5.40;86.80;;;;;;5033107;28;20339;-78
2021/01/11 00:50:12;;;;;;;13.38;5.70;;;5.40;87.00;;;;;;5015152;28;20389;-77
2021/01/11 00:52:38;;;;;;;13.57;5.80;;;5.30;87.10;;;;;;5032684;28;20025;-92
2021/01/11 00:55:06;;;;;;;13.02;5.60;;;5.30;87.10;;;;;;5032549;28;20045;-76
2021/01/11 00:57:31;;;;;;;12.85;5.05;;;5.30;87.20;;;;;;5015329;28;20079;-76
2021/01/11 00:59:57;;;;;;;14.45;5.00;;;5.30;87.20;;;;;;5014824;28;20399;-76
2021/01/11 01:02:23;;;;;;;17.25;6.07;;;5.30;87.10;;;;;;5015426;28;20013;-76
2021/01/11 01:04:48;;;;;;;17.52;7.38;;;5.40;87.10;;;;;;5032882;28;20477;-77
2021/01/11 01:07:14;;;;;;;16.95;5.95;;;5.40;87.10;;;;;;5032987;28;20079;-76
2021/01/11 01:09:39;;;;;;;13.40;5.20;;;5.40;87.00;;;;;;5014814;28;20017;-83
2021/01/11 01:12:05;;;;;;;14.80;5.75;;;5.40;87.00;;;;;;5015032;28;20017;-76
2021/01/11 01:14:31;;;;;;;14.30;4.93;;;5.40;87.00;;;;;;5032643;28;20061;-76
2021/01/11 01:16:57;;;;;;;14.48;5.53;;;5.40;87.00;;;;;;5032422;28;20069;-76
2021/01/11 01:19:22;;;;;;;15.98;5.63;;;5.40;87.00;;;;;;5015174;28;20103;-77
2021/01/11 01:21:48;;;;;;;18.55;6.97;;;5.40;87.00;;;;;;5014552;28;20024;-77
2021/01/11 01:24:13;;;;;;;18.33;8.15;;;5.40;87.00;;;;;;5032319;28;20152;-76
2021/01/11 01:26:39;;;;;;;16.83;6.40;;;5.30;87.20;;;;;;5015041;28;20401;-76
2021/01/11 01:29:05;;;;;;;15.02;5.78;;;5.30;87.30;;;;;;5032060;28;20462;-76
2021/01/11 01:31:31;;;;;;;15.23;6.18;;;5.30;87.30;;;;;;5014718;28;20021;-76
2021/01/11 01:33:56;;;;;;;16.27;5.88;;;5.30;87.30;;;;;;5014432;28;20029;-77
2021/01/11 01:36:22;;;;;;;20.08;7.85;;;5.30;87.30;;;;;;5032339;28;20045;-78
2021/01/11 01:38:48;;;;;;;19.73;7.25;;;5.40;87.40;;;;;;5031920;28;20068;-77
2021/01/11 01:41:14;;;;;;;18.30;7.28;;;5.30;87.30;;;;;;5032247;28;20097;-76
2021/01/11 01:43:40;;;;;;;16.38;6.72;;;5.30;87.30;;;;;;5032075;28;20355;-77
2021/01/11 01:46:07;;;;;;;14.18;6.55;;;5.40;87.30;;;;;;5032046;28;20061;-78
2021/01/11 01:48:34;;;;;;;16.10;6.82;;;5.40;87.30;;;;;;5032391;28;20017;-78
2021/01/11 01:51:00;;;;;;;21.88;7.75;;;5.30;87.40;;;;;;5032789;28;20017;-79
2021/01/11 01:53:25;;;;;;;17.25;6.55;;;5.30;87.50;;;;;;5032625;28;20033;-78
2021/01/11 01:55:53;;;;;;;17.75;7.20;;;5.30;87.50;;;;;;5014288;28;20060;-78
2021/01/11 01:58:21;;;;;;;16.10;6.75;;;5.40;87.40;;;;;;5032252;28;20048;-78
2021/01/11 02:00:48;;;;;;;18.50;7.57;;;5.40;87.40;;;;;;5015023;28;20049;-78
2021/01/11 02:03:14;;;;;;;22.00;8.93;;;5.40;87.40;;;;;;5018305;28;20010;-78
2021/01/11 02:05:39;;;;;;;14.73;6.30;;;5.30;87.50;;;;;;5018462;28;20073;-76
2021/01/11 02:08:16;;;;;;;16.45;6.43;;;5.30;87.60;;;;;;5035552;28;20470;-76
2021/01/11 02:11:07;;;;;;;23.38;8.85;;;5.30;87.60;;;;;;5018021;28;20024;-76
2021/01/11 02:13:38;;;;;;;21.90;6.68;;;5.40;87.50;;;;;;5035550;28;20021;-76
2021/01/11 02:16:07;;;;;;;;;;;5.30;87.50;;;;;;5018142;28;20622;-76
2021/01/11 02:18:39;;;;;;;17.83;7.25;;;5.20;87.50;;;;;;5018071;28;20265;-76
2021/01/11 02:21:31;;;;;;;18.45;6.22;;;5.30;87.70;;;;;;5017629;28;20439;-76
2021/01/11 02:24:11;;;;;;;;;;;5.30;87.60;;;;;;5035841;28;20523;-78
2021/01/11 02:27:03;;;;;;;22.30;6.07;;;5.20;87.50;;;;;;5035738;28;19901;-77
2021/01/11 02:29:33;;;;;;;23.02;7.68;;;5.30;87.50;;;;;;5017543;28;20022;-77
2021/01/11 02:32:00;;;;;;;17.85;7.00;;;5.30;87.30;;;;;;5017423;28;20020;-77
2021/01/11 02:34:28;;;;;;;20.10;7.68;;;5.40;87.20;;;;;;5035531;28;20025;-77
2021/01/11 02:36:54;;;;;;;20.05;7.78;;;5.40;87.10;;;;;;5017529;28;20033;-77
2021/01/11 02:39:20;;;;;;;19.63;8.90;;;5.40;87.10;;;;;;5017646;28;20442;-77
2021/01/11 02:41:46;;;;;;;22.95;7.93;;;5.40;87.10;;;;;;5035273;28;20065;-76
2021/01/11 02:44:12;;;;;;;22.38;8.80;;;5.40;87.20;;;;;;5017744;28;20028;-77
2021/01/11 02:46:37;;;;;;;21.50;8.88;;;5.40;87.20;;;;;;5017143;28;20053;-77
2021/01/11 02:49:38;;;;;;;25.23;9.90;;;5.40;87.20;;;;;;5035135;28;20498;-77
2021/01/11 02:52:12;;;;;;;22.35;7.22;;;5.30;87.00;;;;;;4985903;28;20022;-78
2021/01/11 02:54:40;;;;;;;25.20;8.27;;;5.40;87.20;;;;;;5034788;28;20048;-77
2021/01/11 02:57:26;;;;;;;30.00;9.18;;;5.30;87.20;;;;;;5016826;28;20466;-77
2021/01/11 02:59:57;;;;;;;23.23;8.98;;;5.30;87.20;;;;;;5017054;28;20096;-75
2021/01/11 03:02:25;;;;;;;23.65;8.75;;;5.30;87.20;;;;;;5034904;28;20017;-76
2021/01/11 03:04:51;;;;;;;25.70;9.65;;;5.30;87.30;;;;;;5034584;28;20025;-76
2021/01/11 03:07:17;;;;;;;26.33;8.45;;;5.30;87.30;;;;;;5017315;28;20022;-77
2021/01/11 03:09:45;;;;;;;21.73;9.95;;;5.30;87.20;;;;;;5017122;28;20021;-75
2021/01/11 03:12:11;;;;;;;26.30;7.72;;;5.30;87.30;;;;;;5034327;28;20018;-76
2021/01/11 03:14:38;;;;;;;22.42;9.02;;;5.20;87.30;;;;;;5016891;28;20017;-76
2021/01/11 03:17:04;;;;;;;19.15;9.95;;;5.20;87.30;;;;;;5016615;28;20033;-76
2021/01/11 03:19:30;;;;;;;19.05;6.50;;;5.30;87.20;;;;;;5016955;28;20021;-76
2021/01/11 03:21:56;;;;;;;25.23;8.18;;;5.30;87.20;;;;;;5016780;28;20446;-77
2021/01/11 03:24:22;;;;;;;20.75;7.65;;;5.30;87.20;;;;;;5034424;28;20155;-77
2021/01/11 03:26:49;;;;;;;24.75;7.97;;;5.20;87.20;;;;;;5034352;28;20022;-77
2021/01/11 03:29:16;;;;;;;18.38;7.90;;;5.20;87.40;;;;;;5016800;28;20105;-77
2021/01/11 03:31:44;;;;;;;23.25;7.93;;;5.20;87.50;;;;;;5016345;28;20016;-77
2021/01/11 03:34:10;;;;;;;21.13;8.18;;;5.30;87.50;;;;;;5016397;28;20017;-77
2021/01/11 03:36:37;;;;;;;22.63;8.90;;;5.30;87.40;;;;;;5017219;28;20075;-76
2021/01/11 03:39:05;;;;;;;21.40;8.43;;;5.30;87.30;;;;;;5034324;28;20029;-76
2021/01/11 03:41:34;;;;;;;20.08;9.65;;;5.20;87.30;;;;;;5033955;28;20018;-77
2021/01/11 03:43:59;;;;;;;22.10;7.82;;;5.20;87.60;;;;;;5016117;28;20021;-77
2021/01/11 03:46:27;;;;;;;22.88;8.77;;;5.20;87.60;;;;;;5034355;28;20071;-77
2021/01/11 03:48:53;;;;;;;24.85;7.88;;;5.20;87.50;;;;;;5033923;28;20018;-77
2021/01/11 03:51:19;;;;;;;24.48;9.85;;;5.20;87.30;;;;;;5034125;28;20014;-77
2021/01/11 03:53:45;;;;;;;25.13;8.00;;;5.20;87.30;;;;;;5016291;28;20029;-78
2021/01/11 03:56:10;;;;;;;21.73;6.72;;;5.10;87.50;;;;;;5033592;28;20030;-77
2021/01/11 03:58:36;;;;;;;26.35;10.93;;;5.10;87.60;;;;;;5034031;28;20022;-78
2021/01/11 04:01:03;;;;;;;22.13;8.25;;;5.10;87.50;;;;;;5015582;28;20022;-76
2021/01/11 04:03:29;;;;;;;30.00;11.23;;;5.00;87.60;;;;;;5033402;28;20021;-78
2021/01/11 04:05:56;;;;;;;25.75;8.75;;;5.10;87.70;;;;;;5032789;28;20055;-77
2021/01/11 04:08:22;;;;;;;24.35;8.60;;;5.10;87.90;;;;;;5032996;28;20431;-78
2021/01/11 04:10:48;;;;;;;16.88;7.55;;;5.10;87.90;;;;;;5033541;28;20030;-78
2021/01/11 04:13:14;;;;;;;29.80;10.18;;;5.00;88.00;;;;;;5015038;28;20017;-77
2021/01/11 04:15:40;;;;;;;29.33;9.77;;;4.90;88.20;;;;;;5033012;28;20088;-77
2021/01/11 04:18:05;;;;;;;22.00;9.35;;;4.90;88.50;;;;;;5032857;28;20029;-78
2021/01/11 04:20:31;;;;;;;27.45;9.05;;;4.80;89.00;;;;;;5033430;28;20075;-78
2021/01/11 04:22:58;;;;;;;25.45;8.68;;;4.70;89.10;;;;;;5014586;28;20017;-78
2021/01/11 04:25:25;;;;;;;30.45;9.68;;;4.70;89.30;;;;;;5033015;28;20021;-78
2021/01/11 04:27:52;;;;;;;20.33;7.03;;;4.70;89.40;;;;;;5015236;28;20022;-78
2021/01/11 04:30:18;;;;;;;22.58;7.13;;;4.70;89.50;;;;;;5015080;28;20148;-77
2021/01/11 04:32:45;;;;;;;23.27;7.40;;;4.80;89.50;;;;;;5033506;28;20010;-78
2021/01/11 04:35:13;;;;;;;25.77;8.05;;;4.70;89.50;;;;;;5032863;28;20026;-78
2021/01/11 04:37:41;;;;;;;19.92;7.03;;;4.80;89.50;;;;;;5033078;28;20017;-77
2021/01/11 04:40:09;;;;;;;20.42;7.80;;;4.80;89.40;;;;;;5015528;28;20120;-78
2021/01/11 04:42:37;;;;;;;20.02;8.05;;;4.80;89.20;;;;;;5015501;28;20358;-76
2021/01/11 04:45:03;;;;;;;21.08;7.90;;;4.80;89.40;;;;;;5032948;28;20025;-77
2021/01/11 04:47:30;;;;;;;17.50;7.35;;;4.80;89.40;;;;;;5032911;28;20014;-76
2021/01/11 04:49:56;;;;;;;24.63;7.07;;;4.80;90.00;;;;;;5032787;28;20021;-80
2021/01/11 04:52:24;;;;;;;25.25;7.80;;;4.80;89.60;;;;;;5032721;28;20033;-77
2021/01/11 04:55:00;;;;;;;24.13;8.27;;;4.90;89.20;;;;;;5014830;28;20049;-77
2021/01/11 04:57:40;;;;;;;23.05;6.97;;;4.90;89.00;;;;;;5015297;28;20025;-77
2021/01/11 05:00:10;;;;;;;19.40;7.33;;;4.90;89.50;;;;;;5032774;28;20112;-78
2021/01/11 05:02:42;;;;;;;26.27;7.93;;;4.90;88.90;;;;;;5014929;28;20017;-77
2021/01/11 05:05:08;;;;;;;19.10;7.45;;;4.90;89.00;;;;;;5033014;28;20029;-78
2021/01/11 05:07:34;;;;;;;26.17;7.70;;;4.90;89.10;;;;;;5032987;28;20017;-77
2021/01/11 05:10:00;;;;;;;18.52;7.35;;;4.90;89.10;;;;;;5032693;28;20028;-78
2021/01/11 05:12:27;;;;;;;24.45;8.15;;;4.80;89.30;;;;;;5015080;28;20451;-77
2021/01/11 05:15:18;;;;;;;20.95;7.35;;;4.70;89.50;;;;;;5015059;28;20108;-77
2021/01/11 05:17:45;;;;;;;24.27;9.65;;;4.70;89.70;;;;;;5014829;28;20029;-78
2021/01/11 05:20:13;;;;;;;20.80;7.57;;;4.60;89.90;;;;;;5014465;28;20019;-78
2021/01/11 05:22:48;;;;;;;27.00;9.07;;;4.60;90.10;;;;;;5014872;28;20378;-76
2021/01/11 05:25:19;;;;;;;23.75;7.82;;;4.60;90.20;;;;;;5014615;28;20021;-76
2021/01/11 05:27:46;;;;;;;20.92;8.55;;;4.50;90.20;;;;;;5012936;28;20041;-77
2021/01/11 05:30:23;;;;;;;20.40;6.90;;;4.50;90.20;;;;;;5031750;28;20029;-77
2021/01/11 05:32:50;;;;;;;26.77;9.18;;;4.60;90.30;;;;;;5032132;28;20026;-79
2021/01/11 05:35:22;;;;;;;30.83;8.38;;;4.50;90.40;;;;;;5015709;28;20060;-78
2021/01/11 05:37:48;;;;;;;24.85;8.07;;;4.50;90.40;;;;;;5018416;28;20032;-78
2021/01/11 05:40:15;;;;;;;21.58;8.07;;;4.50;90.50;;;;;;5014753;28;20010;-76
2021/01/11 05:42:42;;;;;;;26.15;8.60;;;4.50;90.50;;;;;;4999137;28;20407;-77
2021/01/11 05:45:08;;;;;;;19.10;6.75;;;4.50;90.50;;;;;;5017049;28;20157;-77
2021/01/11 05:47:34;;;;;;;32.22;8.18;;;4.50;90.50;;;;;;5018051;28;20423;-77
2021/01/11 05:50:09;;;;;;;26.98;9.40;;;4.60;90.50;;;;;;5002905;28;20076;-91
2021/01/11 05:52:35;;;;;;;26.90;9.25;;;4.60;90.50;;;;;;5004241;28;20014;-77
2021/01/11 05:55:23;;;;;;;23.10;8.25;;;4.60;90.60;;;;;;5034593;28;20483;-91
2021/01/11 05:57:56;;;;;;;27.23;8.98;;;4.60;90.60;;;;;;5005728;28;20052;-80
2021/01/11 06:00:24;;;;;;;23.98;7.90;;;4.60;90.60;;;;;;5020454;28;20403;-79
2021/01/11 06:02:49;;;;;;;30.23;9.00;;;4.70;90.50;;;;;;5016021;28;20025;-79
2021/01/11 06:05:17;;;;;;;35.55;8.00;;;4.70;90.50;;;;;;5013988;28;20170;-77
2021/01/11 06:07:46;;;;;;;27.30;7.88;;;4.70;90.40;;;;;;5014070;28;20447;-78
2021/01/11 06:10:16;;;;;;;28.20;8.90;;;4.70;90.50;;;;;;5013057;28;20025;-78
2021/01/11 06:12:45;;;;;;;25.77;9.00;;;4.80;90.40;;;;;;5013179;28;20018;-78
2021/01/11 06:15:13;;;;;;;27.00;9.88;;;4.80;90.30;;;;;;5012623;28;20026;-77
2021/01/11 06:17:41;;;;;;;30.95;9.45;;;4.80;90.30;;;;;;4995689;28;20049;-77
2021/01/11 06:20:08;;;;;;;31.52;11.85;;;4.70;90.40;;;;;;5012554;28;20026;-77
2021/01/11 06:23:03;;;;;;;33.47;12.10;;;4.70;90.60;;;;;;5013167;28;20026;-78
2021/01/11 06:25:28;;;;;;;31.38;11.77;;;4.70;90.60;;;;;;4995892;28;20099;-78
2021/01/11 06:27:55;;;;;;;36.03;13.13;;;4.60;90.70;;;;;;5015805;28;20021;-78
2021/01/11 06:30:39;;;;;;;39.60;12.23;;;4.70;90.80;;;;;;5015268;28;20022;-79
2021/01/11 06:33:10;;;;;;;30.17;11.45;;;4.70;90.70;;;;;;5015660;28;20028;-80
2021/01/11 06:35:46;;;;;;;27.17;10.55;;;4.70;90.70;;;;;;5015684;28;20032;-79
2021/01/11 06:38:22;;;;;;;28.58;11.07;;;4.70;90.80;;;;;;5015152;28;20088;-80
2021/01/11 06:40:53;;;;;;;32.78;13.07;;;4.70;90.90;;;;;;5015691;28;20457;-79
2021/01/11 06:43:20;;;;;;;27.98;10.88;;;4.60;90.90;;;;;;5014533;28;20105;-79
2021/01/11 06:45:48;;;;;;;28.65;10.80;;;4.60;90.90;;;;;;5015321;28;20035;-78
2021/01/11 06:48:23;;;;;;;29.55;10.90;;;4.70;90.90;;;;;;4996885;28;20367;-79
2021/01/11 06:50:50;;;;;;;29.17;11.65;;;4.80;90.90;;;;;;5015515;28;20053;-78
2021/01/11 06:53:28;;;;;;;24.98;9.98;;;4.70;90.90;;;;;;4997171;28;20026;-78
2021/01/11 06:56:11;;;;;;;27.60;10.27;;;4.80;90.90;;;;;;5015098;28;20037;-79
2021/01/11 06:58:39;;;;;;;29.58;9.93;;;4.80;90.90;;;;;;5015043;28;20018;-78
2021/01/11 07:01:07;;;;;;;23.63;9.35;;;4.80;90.90;;;;;;4997367;28;20026;-80
2021/01/11 07:03:50;;;;;;;37.13;13.25;;;4.80;90.90;;;;;;4997338;28;20021;-78
2021/01/11 07:06:57;;;;;;;33.17;11.43;;;4.90;90.80;;;;;;4996812;28;20529;-78
2021/01/11 07:09:23;;;;;;;34.90;11.35;;;4.90;90.80;;;;;;5011159;28;20037;-79
2021/01/11 07:11:50;;;;;;;27.88;10.45;;;4.80;90.90;;;;;;4997154;28;20028;-78
2021/01/11 07:14:21;;;;;;;29.50;12.45;;;4.80;90.90;;;;;;5014087;28;20109;-78
2021/01/11 07:16:52;;;;;;;28.55;10.82;;;4.80;91.00;;;;;;4997119;28;20033;-78
2021/01/11 07:19:42;;;;;;;30.23;10.35;;;4.80;91.00;;;;;;4996275;28;20049;-78
2021/01/11 07:22:11;;;;;;;26.63;10.68;;;4.80;91.00;;;;;;4996558;28;20018;-79
2021/01/11 07:24:40;;;;;;;29.15;11.55;;;4.80;91.00;;;;;;5014206;28;20022;-78
2021/01/11 07:27:07;;;;;;;29.55;11.10;;;4.80;91.10;;;;;;5014381;28;20026;-78
2021/01/11 07:29:33;;;;;;;27.98;11.88;;;4.70;91.10;;;;;;5014970;28;20029;-78
2021/01/11 07:31:59;;;;;;;24.88;10.25;;;4.70;91.20;;;;;;4997269;28;20014;-79
2021/01/11 07:34:25;;;;;;;27.63;11.10;;;4.70;91.20;;;;;;5013950;28;20447;-79
2021/01/11 07:36:52;;;;;;;23.02;10.02;;;4.70;91.20;;;;;;5014400;28;20112;-78
2021/01/11 07:39:25;;;;;;;26.67;10.15;;;4.80;91.20;;;;;;5013660;28;20022;-78
2021/01/11 07:41:55;;;;;;;23.88;9.13;;;4.80;91.20;;;;;;5013949;28;20018;-78
2021/01/11 07:44:25;;;;;;;19.67;8.93;;;4.80;91.10;;;;;;5013782;28;20014;-79
2021/01/11 07:47:08;;;;;;;20.80;9.68;;;4.80;91.10;;;;;;4996976;28;20022;-79
2021/01/11 07:49:51;;;;;;;20.60;8.93;;;4.90;91.10;;;;;;5013717;28;20025;-79
2021/01/11 07:52:18;;;;;;;28.83;9.75;;;4.90;91.10;;;;;;4996170;28;20062;-79
2021/01/11 07:54:45;;;;;;;19.42;7.85;;;4.90;91.10;;;;;;5013597;28;20052;-78
2021/01/11 07:57:12;;;;;;;25.48;9.95;;;4.90;91.10;;;;;;4995733;28;20034;-77
2021/01/11 07:59:39;;;;;;;27.30;10.65;;;4.80;91.10;;;;;;4995493;28;20380;-77
2021/01/11 08:02:11;;;;;;;25.73;10.55;;;4.80;91.20;;;;;;4996352;28;20474;-77
2021/01/11 08:04:37;;;;;;;20.48;8.43;;;4.70;91.20;;;;;;5013786;28;20061;-77
2021/01/11 08:07:11;;;;;;;24.45;10.02;;;4.70;91.30;;;;;;4996034;28;20022;-79
2021/01/11 08:09:39;;;;;;;19.50;7.57;;;4.70;91.30;;;;;;5013778;28;20045;-78
2021/01/11 08:12:04;;;;;;;19.63;9.75;;;4.70;91.30;;;;;;5013717;28;20021;-78
2021/01/11 08:14:30;;;;;;;17.95;7.68;;;4.80;91.20;;;;;;5013169;28;20108;-78
2021/01/11 08:16:56;;;;;;;20.55;9.23;;;4.70;91.20;;;;;;4995979;28;20410;-77
2021/01/11 08:19:22;;;;;;;29.55;9.95;;;4.70;91.20;;;;;;5013164;28;20060;-78
2021/01/11 08:21:59;;;;;;;19.75;9.00;;;4.70;91.20;;;;;;5013468;28;20053;-78
2021/01/11 08:24:25;;;;;;;20.08;9.02;;;4.70;91.20;;;;;;5013098;28;20045;-78
2021/01/11 08:27:27;;;;;;;25.63;9.10;;;4.70;91.20;;;;;;5013398;28;20495;-78
2021/01/11 08:29:54;;;;;;;18.95;9.02;;;4.70;91.20;;;;;;5013062;28;20537;-77
2021/01/11 08:32:20;;;;;;;21.85;8.13;;;4.70;91.20;;;;;;4995098;28;20018;-78
2021/01/11 08:34:46;;;;;;;23.55;8.32;;;4.70;91.20;;;;;;5013233;28;20108;-78
2021/01/11 08:37:28;;;;;;;17.92;7.70;;;4.80;91.20;;;;;;5013201;28;20110;-78
2021/01/11 08:40:25;;;;;;;18.23;8.13;;;4.80;91.10;;;;;;5013387;28;20076;-77
2021/01/11 08:42:51;;;;;;;24.45;9.65;;;4.80;91.10;;;;;;5013058;28;20060;-78
2021/01/11 08:45:28;;;;;;;18.67;7.57;;;4.80;91.10;;;;;;5012734;28;20049;-78
2021/01/11 08:48:23;;;;;;;18.02;8.23;;;4.90;91.10;;;;;;4995661;28;20022;-77
2021/01/11 08:50:51;;;;;;;28.85;9.27;;;4.90;91.10;;;;;;5007825;28;20029;-77
2021/01/11 08:53:41;;;;;;;16.00;8.43;;;4.80;91.10;;;;;;5012826;28;20022;-79
2021/01/11 08:56:09;;;;;;;20.40;8.82;;;4.80;91.20;;;;;;5012551;28;20104;-78
2021/01/11 08:58:49;;;;;;;17.30;6.97;;;4.80;91.10;;;;;;5012665;28;20435;-78
2021/01/11 09:01:24;;;;;;;21.17;8.63;;;4.80;91.20;;;;;;5012701;28;20052;-84
2021/01/11 09:03:55;;;;;;;18.90;7.07;;;4.80;91.10;;;;;;5013241;28;20045;-78
2021/01/11 09:06:43;;;;;;;19.23;8.57;;;4.80;91.10;;;;;;5012739;28;20053;-77
2021/01/11 09:09:19;;;;;;;17.77;8.70;;;4.90;91.00;;;;;;4995578;28;20022;-78
2021/01/11 09:11:47;;;;;;;20.55;8.43;;;4.90;91.00;;;;;;5012931;28;20022;-77
2021/01/11 09:14:15;;;;;;;21.55;8.10;;;4.90;91.00;;;;;;4995222;28;20410;-78
2021/01/11 09:16:42;;;;;;;18.20;7.72;;;4.90;91.00;;;;;;4996376;28;20057;-79
2021/01/11 09:19:18;;;;;;;21.70;7.30;;;4.90;91.00;;;;;;5014070;28;20018;-78
2021/01/11 09:22:06;;;;;;;17.30;7.13;;;4.90;91.00;;;;;;4995176;28;20022;-78
2021/01/11 09:24:33;;;;;;;19.13;7.85;;;4.90;90.90;;;;;;4994588;28;20108;-78
2021/01/11 09:26:59;;;;;;;14.57;7.30;;;4.90;90.90;;;;;;5012649;28;20025;-78
2021/01/11 09:29:25;;;;;;;22.02;8.43;;;4.90;90.90;;;;;;5012503;28;20072;-79
2021/01/11 09:31:52;;;;;;;17.30;7.68;;;4.90;90.90;;;;;;5012388;28;20101;-79
2021/01/11 09:34:18;;;;;;;24.80;8.13;;;4.90;90.90;;;;;;5012275;28;20018;-80
2021/01/11 09:36:45;;;;;;;16.92;7.03;;;4.90;90.90;;;;;;5012166;28;20025;-79
2021/01/11 09:39:12;;;;;;;19.83;6.88;;;4.90;90.90;;;;;;5012597;28;20474;-78
2021/01/11 09:41:53;;;;;;;17.08;6.43;;;5.00;90.90;;;;;;4994498;28;20056;-79
2021/01/11 09:44:19;;;;;;;20.50;7.22;;;5.10;90.90;;;;;;4994324;28;20530;-79
2021/01/11 09:46:53;;;;;;;13.65;6.32;;;5.00;90.80;;;;;;5012619;28;20026;-78
2021/01/11 09:49:19;;;;;;;20.15;6.68;;;5.10;90.80;;;;;;4994453;28;20018;-80
2021/01/11 09:51:45;;;;;;;20.02;6.80;;;5.10;90.80;;;;;;5012531;28;20075;-78
2021/01/11 09:54:11;;;;;;;12.95;6.15;;;5.10;90.70;;;;;;5012270;28;20124;-78
2021/01/11 09:56:37;;;;;;;14.75;6.28;;;5.10;90.70;;;;;;4994949;28;20474;-79
2021/01/11 09:59:04;;;;;;;17.58;7.22;;;5.20;90.70;;;;;;5012812;28;20030;-79
2021/01/11 10:01:41;;;;;;;19.83;6.47;;;5.20;90.70;;;;;;4994329;28;20022;-76
2021/01/11 10:04:08;;;;;;;15.65;7.20;;;5.20;90.90;;;;;;5012202;28;20483;-79
2021/01/11 10:06:54;;;;;;;19.88;6.55;;;5.20;90.60;;;;;;4993855;28;20029;-78
2021/01/11 10:09:28;;;;;;;17.92;7.15;;;5.20;90.50;;;;;;5011973;28;20447;-79
2021/01/11 10:11:59;;;;;;;15.73;7.18;;;5.20;90.50;;;;;;5012231;28;20053;-77
2021/01/11 10:14:26;;;;;;;14.25;5.93;;;5.10;90.40;;;;;;5011622;28;20022;-77
2021/01/11 10:16:52;;;;;;;18.15;7.00;;;5.20;90.50;;;;;;4994354;28;20062;-77
2021/01/11 10:19:19;;;;;;;21.63;6.85;;;5.20;90.50;;;;;;5012442;28;20050;-78
2021/01/11 10:21:46;;;;;;;17.33;6.15;;;5.30;90.40;;;;;;5013304;28;20018;-77
2021/01/11 10:24:16;;;;;;;19.65;6.97;;;5.20;90.30;;;;;;5015810;28;20046;-78
2021/01/11 10:26:43;;;;;;;17.77;8.23;;;5.30;90.40;;;;;;4997359;28;20030;-78
2021/01/11 10:29:09;;;;;;;14.73;6.65;;;5.30;90.40;;;;;;5015684;28;20022;-78
2021/01/11 10:31:35;;;;;;;15.05;5.55;;;5.30;90.30;;;;;;5014738;28;20395;-78
2021/01/11 10:34:00;;;;;;;12.98;5.93;;;5.30;90.30;;;;;;5015709;28;20030;-79
2021/01/11 10:36:26;;;;;;;17.60;6.40;;;5.30;90.30;;;;;;5015184;28;20440;-79
2021/01/11 10:38:52;;;;;;;13.68;5.05;;;5.30;90.20;;;;;;5015648;28;20458;-79
2021/01/11 10:41:20;;;;;;;14.57;6.07;;;5.20;90.20;;;;;;5015618;28;20100;-79
2021/01/11 10:43:47;;;;;;;12.82;6.38;;;5.30;90.30;;;;;;4997776;28;20398;-78
2021/01/11 10:46:16;;;;;;;13.00;5.25;;;5.30;90.30;;;;;;5015076;28;20106;-78
2021/01/11 10:48:44;;;;;;;13.98;6.10;;;5.30;90.30;;;;;;4997233;28;20092;-78
2021/01/11 10:51:14;;;;;;;13.48;5.78;;;5.40;90.20;;;;;;4997832;28;20026;-77
2021/01/11 10:53:41;;;;;;;15.50;7.07;;;5.40;90.20;;;;;;4997013;28;20052;-79
2021/01/11 10:56:07;;;;;;;17.60;6.88;;;5.30;90.10;;;;;;5015455;28;20041;-79
2021/01/11 10:58:34;;;;;;;15.43;7.10;;;5.40;90.20;;;;;;4997531;28;20022;-78
2021/01/11 11:01:00;;;;;;;14.32;6.65;;;5.30;90.20;;;;;;4997878;28;20354;-78
2021/01/11 11:03:26;;;;;;;22.17;7.72;;;5.30;90.10;;;;;;4997005;28;20321;-79
2021/01/11 11:05:52;;;;;;;12.13;6.78;;;5.40;90.20;;;;;;4997614;28;20025;-78
2021/01/11 11:08:19;;;;;;;13.30;6.50;;;5.40;90.10;;;;;;5015163;28;20101;-78
2021/01/11 11:10:44;;;;;;;14.20;6.32;;;5.50;90.10;;;;;;5015002;28;20337;-78
2021/01/11 11:13:10;;;;;;;17.08;6.40;;;5.50;90.10;;;;;;5015730;28;20029;-78
2021/01/11 11:15:36;;;;;;;15.40;7.30;;;5.40;90.00;;;;;;5017083;28;20384;-78
2021/01/11 11:18:02;;;;;;;14.98;6.80;;;5.50;90.00;;;;;;4999532;28;20030;-78
2021/01/11 11:20:28;;;;;;;16.10;6.57;;;5.50;90.00;;;;;;5022317;28;20025;-79
2021/01/11 11:22:54;;;;;;;14.80;5.93;;;5.60;90.00;;;;;;5032818;28;20026;-78
2021/01/11 11:25:20;;;;;;;17.58;7.60;;;5.60;89.90;;;;;;5014382;28;20471;-79
2021/01/11 11:27:49;;;;;;;13.55;5.93;;;5.60;89.90;;;;;;5020819;28;20022;-78
2021/01/11 11:30:16;;;;;;;14.50;6.00;;;5.60;89.90;;;;;;5015812;28;20026;-78
2021/01/11 11:32:49;;;;;;;12.35;6.28;;;5.60;89.70;;;;;;5015389;28;20021;-78
2021/01/11 11:35:16;;;;;;;17.08;7.18;;;5.70;89.40;;;;;;4998029;28;20013;-78
2021/01/11 11:37:42;;;;;;;15.85;5.78;;;5.60;89.20;;;;;;4997103;28;20060;-78
2021/01/11 11:40:10;;;;;;;12.75;6.75;;;5.60;89.00;;;;;;4996745;28;20060;-78
2021/01/11 11:42:37;;;;;;;13.98;5.68;;;5.60;89.20;;;;;;4996620;28;20025;-78
2021/01/11 11:45:05;;;;;;;15.50;6.38;;;5.60;89.20;;;;;;5013936;28;20018;-78
2021/01/11 11:47:35;;;;;;;14.55;6.45;;;5.60;89.20;;;;;;5014084;28;20100;-78
2021/01/11 11:50:02;;;;;;;14.45;6.45;;;5.60;89.20;;;;;;5014142;28;20022;-78
2021/01/11 11:52:28;;;;;;;14.65;6.13;;;5.60;88.90;;;;;;5013473;28;20022;-79
2021/01/11 11:54:54;;;;;;;16.73;6.35;;;5.70;89.00;;;;;;5029172;28;20048;-78
2021/01/11 11:57:20;;;;;;;13.98;6.15;;;5.70;88.90;;;;;;5029629;28;20033;-80
2021/01/11 11:59:45;;;;;;;19.13;7.18;;;5.70;88.80;;;;;;4996376;28;20017;-78
2021/01/11 12:02:12;;;;;;;15.63;5.47;;;5.70;88.80;;;;;;5014412;28;20071;-79
2021/01/11 12:04:39;;;;;;;14.23;6.00;;;5.70;88.70;;;;;;5013299;28;20482;-77
2021/01/11 12:07:04;;;;;;;13.43;5.70;;;5.70;88.80;;;;;;5013745;28;20032;-77
2021/01/11 12:09:30;;;;;;;13.00;6.10;;;5.70;88.80;;;;;;5013438;28;20018;-76
2021/01/11 12:11:56;;;;;;;12.68;6.13;;;5.70;88.60;;;;;;4996227;28;20062;-77
2021/01/11 12:14:21;;;;;;;11.95;5.97;;;5.70;88.70;;;;;;5014059;28;20060;-78
2021/01/11 12:16:48;;;;;;;15.95;5.28;;;5.80;88.60;;;;;;4995374;28;20080;-78
2021/01/11 12:19:14;;;;;;;14.05;6.93;;;5.80;88.50;;;;;;5013181;28;20025;-78
2021/01/11 12:21:40;;;;;;;12.85;5.72;;;5.80;88.30;;;;;;5013020;28;20013;-78
2021/01/11 12:24:09;;;;;;;11.43;4.80;;;5.80;88.30;;;;;;4995922;28;20112;-78
2021/01/11 12:26:42;;;;;;;12.60;5.47;;;5.90;88.20;;;;;;5012705;28;20061;-78
2021/01/11 12:29:08;;;;;;;13.98;5.80;;;5.90;88.00;;;;;;4996179;28;20042;-78
2021/01/11 12:31:34;;;;;;;14.38;5.78;;;5.90;87.90;;;;;;5013817;28;20026;-78
2021/01/11 12:34:00;;;;;;;13.30;5.45;;;6.00;87.70;;;;;;5014219;28;20457;-78
2021/01/11 12:36:28;;;;;;;16.95;5.88;;;6.00;87.80;;;;;;4996070;28;20132;-78
2021/01/11 12:38:55;;;;;;;12.25;5.75;;;6.00;87.80;;;;;;5013153;28;20109;-78
2021/01/11 12:41:22;;;;;;;12.77;6.18;;;6.00;87.80;;;;;;4996608;28;20022;-79
2021/01/11 12:43:48;;;;;;;15.82;5.95;;;6.00;87.60;;;;;;4995808;28;20024;-78
2021/01/11 12:46:19;;;;;;;18.35;5.72;;;6.00;87.30;;;;;;5013729;28;20022;-78
2021/01/11 12:48:46;;;;;;;13.00;5.15;;;6.00;87.50;;;;;;4995559;28;20018;-78
2021/01/11 12:51:16;;;;;;;11.77;5.53;;;6.00;87.50;;;;;;5013519;28;20026;-78
2021/01/11 12:53:45;;;;;;;13.77;6.30;;;6.00;87.70;;;;;;5012878;28;20022;-78
2021/01/11 12:56:24;;;;;;;10.48;5.03;;;6.00;87.70;;;;;;5013521;28;20049;-77